X  Close Metar Aviation Weather Data     KASD Slidell Airport
Temperature
63°F Temperature
55°F Dewpoint
77% Humidity



Wind
0 MPH
0 KM/H
0 M/S
0 KTS



Calm
N
Current Conditions

Clear Clear
Pressure 1015.22 (hPa) - 29.98 (inHg)
Visibility 10 (mile) - 16.1 (km)
Airport
Airport-code KASD

Location: Slidell Airport
Distance: 1 (mi)

Metar:
KASD 020153Z AUTO 00000KT 10SM CLR 17/13 A2998 RMK AO2 SLP152 T01720133

Time: 01-10-2022 20:53 CDT